createdAt,value
2024-03-24T00:00:30.716Z,26.27
2024-03-24T00:01:32.746Z,26.28
2024-03-24T00:02:30.790Z,26.27
2024-03-24T00:03:30.854Z,26.27
2024-03-24T00:04:30.874Z,26.27
2024-03-24T00:05:30.917Z,26.27
2024-03-24T00:06:30.950Z,26.27
2024-03-24T00:07:30.987Z,26.27
2024-03-24T00:08:31.015Z,26.27
2024-03-24T00:09:31.048Z,26.27
2024-03-24T00:10:31.106Z,26.27
2024-03-24T00:11:31.142Z,26.27
2024-03-24T00:12:31.136Z,26.27
2024-03-24T00:13:31.134Z,26.27
2024-03-24T00:14:31.140Z,26.27
2024-03-24T00:15:31.138Z,26.28
2024-03-24T00:16:31.152Z,26.28
2024-03-24T00:17:31.146Z,26.27
2024-03-24T00:18:31.132Z,26.28
2024-03-24T00:19:31.139Z,26.28
2024-03-24T00:20:31.141Z,26.27
2024-03-24T00:21:31.149Z,26.28
2024-03-24T00:22:31.142Z,26.28
2024-03-24T00:23:31.163Z,26.28
2024-03-24T00:24:31.148Z,26.28
2024-03-24T00:25:31.153Z,26.28
2024-03-24T00:26:31.162Z,26.28
2024-03-24T00:27:31.162Z,26.27
2024-03-24T00:28:31.214Z,26.28
2024-03-24T00:29:31.229Z,26.27
2024-03-24T00:30:31.279Z,26.27
2024-03-24T00:31:31.318Z,26.27
2024-03-24T00:32:31.351Z,26.26
2024-03-24T00:33:31.391Z,26.27
2024-03-24T00:34:31.420Z,26.27
2024-03-24T00:35:31.466Z,26.25
2024-03-24T00:36:31.509Z,26.26
2024-03-24T00:37:31.564Z,26.26
2024-03-24T00:38:31.587Z,26.27
2024-03-24T00:39:31.642Z,26.26
2024-03-24T00:40:31.677Z,26.27
2024-03-24T00:41:31.721Z,26.27
2024-03-24T00:42:31.781Z,26.27
2024-03-24T00:43:31.799Z,26.27
2024-03-24T00:44:31.818Z,26.27
2024-03-24T00:45:31.854Z,26.27
2024-03-24T00:46:31.895Z,26.27
2024-03-24T00:47:31.923Z,26.26
2024-03-24T00:48:31.958Z,26.27
2024-03-24T00:49:32.008Z,26.27
2024-03-24T00:50:32.040Z,26.27
2024-03-24T00:51:32.086Z,26.26
2024-03-24T00:52:32.098Z,26.26
2024-03-24T00:53:32.141Z,26.26
2024-03-24T00:54:32.175Z,26.26
2024-03-24T00:55:32.216Z,26.26
2024-03-24T00:56:32.276Z,26.26
2024-03-24T00:57:32.300Z,26.26
2024-03-24T00:58:32.342Z,26.26
2024-03-24T00:59:32.384Z,26.27
2024-03-24T01:00:32.429Z,26.27
2024-03-24T01:01:32.471Z,26.29
2024-03-24T01:02:32.538Z,26.28
2024-03-24T01:03:32.579Z,26.28
2024-03-24T01:04:32.632Z,26.28
2024-03-24T01:05:32.690Z,26.28
2024-03-24T01:06:32.743Z,26.28
2024-03-24T01:07:32.783Z,26.27
2024-03-24T01:08:32.860Z,26.28
2024-03-24T01:09:32.888Z,26.29
2024-03-24T01:10:32.890Z,26.27
2024-03-24T01:11:32.922Z,26.27
2024-03-24T01:12:32.899Z,26.28
2024-03-24T01:13:32.888Z,26.27
2024-03-24T01:14:32.908Z,26.27
2024-03-24T01:15:32.907Z,26.26
2024-03-24T01:16:32.911Z,26.26
2024-03-24T01:17:32.912Z,26.26
2024-03-24T01:18:32.911Z,26.26
2024-03-24T01:19:33.088Z,26.26
2024-03-24T01:20:32.894Z,26.26
2024-03-24T01:21:32.916Z,26.26
2024-03-24T01:22:32.903Z,26.26
2024-03-24T01:23:32.907Z,26.26
2024-03-24T01:24:32.944Z,26.27
2024-03-24T01:25:32.991Z,26.27
2024-03-24T01:26:33.040Z,26.27
2024-03-24T01:27:33.089Z,26.28
2024-03-24T01:28:33.126Z,26.28
2024-03-24T01:29:33.176Z,26.28
2024-03-24T01:30:33.220Z,26.28
2024-03-24T01:31:33.271Z,26.28
2024-03-24T01:32:33.317Z,26.28
2024-03-24T01:33:33.351Z,26.28
2024-03-24T01:34:33.419Z,26.28
2024-03-24T01:35:33.426Z,26.28
2024-03-24T01:36:33.478Z,26.28
2024-03-24T01:37:33.501Z,26.28
2024-03-24T01:38:33.530Z,26.28
2024-03-24T01:39:33.570Z,26.28
2024-03-24T01:40:33.619Z,26.28
2024-03-24T01:41:33.669Z,26.28
2024-03-24T01:42:33.699Z,26.28
2024-03-24T01:43:33.745Z,26.27
2024-03-24T01:44:33.792Z,26.28
2024-03-24T01:45:33.855Z,26.27
2024-03-24T01:46:33.918Z,26.28
2024-03-24T01:47:33.949Z,26.27
2024-03-24T01:48:34.004Z,26.27
2024-03-24T01:49:34.074Z,26.27
2024-03-24T01:50:34.117Z,26.27
2024-03-24T01:51:34.154Z,26.27
2024-03-24T01:52:34.219Z,26.27
2024-03-24T01:53:34.266Z,26.27
2024-03-24T01:54:34.318Z,26.27
2024-03-24T01:55:34.378Z,26.27
2024-03-24T01:56:34.451Z,26.28
2024-03-24T01:57:34.488Z,26.27
2024-03-24T01:58:34.543Z,26.27
2024-03-24T01:59:34.602Z,26.27
2024-03-24T02:00:34.712Z,26.27
2024-03-24T02:01:34.710Z,26.27
2024-03-24T02:02:34.768Z,26.28
2024-03-24T02:03:34.843Z,26.27
2024-03-24T02:04:34.878Z,26.28
2024-03-24T02:05:34.915Z,26.27
2024-03-24T02:06:34.996Z,26.27
2024-03-24T02:07:35.027Z,26.27
2024-03-24T02:08:35.077Z,26.28
2024-03-24T02:09:35.124Z,26.27
2024-03-24T02:10:35.188Z,26.28
2024-03-24T02:11:35.233Z,26.27
2024-03-24T02:12:35.286Z,26.27
2024-03-24T02:13:35.331Z,26.27
2024-03-24T02:14:35.393Z,26.27
2024-03-24T02:15:35.430Z,26.26
2024-03-24T02:16:35.493Z,26.26
2024-03-24T02:17:35.551Z,26.26
2024-03-24T02:18:35.600Z,26.27
2024-03-24T02:19:35.659Z,26.26
2024-03-24T02:20:35.709Z,26.26
2024-03-24T02:21:35.763Z,26.25
2024-03-24T02:22:35.816Z,26.26
2024-03-24T02:23:35.874Z,26.26
2024-03-24T02:24:35.934Z,26.26
2024-03-24T02:25:35.989Z,26.26
2024-03-24T02:26:36.052Z,26.26
2024-03-24T02:27:36.091Z,26.26
2024-03-24T02:28:36.126Z,26.26
2024-03-24T02:29:36.180Z,26.26
2024-03-24T02:30:36.246Z,26.26
2024-03-24T02:31:36.287Z,26.26
2024-03-24T02:32:36.335Z,26.26
2024-03-24T02:33:36.368Z,26.26
2024-03-24T02:34:36.345Z,26.26
2024-03-24T02:35:36.358Z,26.25
2024-03-24T02:36:36.364Z,26.25
2024-03-24T02:37:36.342Z,26.25
2024-03-24T02:38:36.347Z,26.25
2024-03-24T02:39:36.342Z,26.26
2024-03-24T02:40:36.343Z,26.26
2024-03-24T02:41:36.353Z,26.26
2024-03-24T02:42:36.337Z,26.26
2024-03-24T02:43:36.365Z,26.25
2024-03-24T02:44:36.339Z,26.25
2024-03-24T02:45:36.339Z,26.25
2024-03-24T02:46:36.359Z,26.26
2024-03-24T02:47:36.391Z,26.25
2024-03-24T02:48:36.454Z,26.25
2024-03-24T02:49:36.499Z,26.25
2024-03-24T02:50:36.559Z,26.25
2024-03-24T02:51:36.632Z,26.25
2024-03-24T02:52:36.670Z,26.24
2024-03-24T02:53:36.730Z,26.25
2024-03-24T02:54:36.798Z,26.25
2024-03-24T02:55:36.845Z,26.25
2024-03-24T02:56:36.899Z,26.25
2024-03-24T02:57:36.955Z,26.24
2024-03-24T02:58:37.018Z,26.24
2024-03-24T02:59:37.075Z,26.24
2024-03-24T03:00:37.130Z,26.25
2024-03-24T03:01:37.165Z,26.26
2024-03-24T03:02:37.199Z,26.25
2024-03-24T03:03:37.261Z,26.26
2024-03-24T03:04:37.284Z,26.25
2024-03-24T03:05:37.318Z,26.25
2024-03-24T03:06:37.372Z,26.25
2024-03-24T03:07:37.408Z,26.24
2024-03-24T03:08:37.448Z,26.24
2024-03-24T03:09:37.499Z,26.26
2024-03-24T03:10:37.538Z,26.26
2024-03-24T03:11:37.579Z,26.26
2024-03-24T03:12:37.626Z,26.27
2024-03-24T03:13:37.672Z,26.26
2024-03-24T03:14:37.724Z,26.25
2024-03-24T03:15:37.765Z,26.26
2024-03-24T03:16:37.810Z,26.25
2024-03-24T03:17:37.880Z,26.25
2024-03-24T03:18:37.916Z,26.24
2024-03-24T03:19:37.977Z,26.23
2024-03-24T03:20:38.013Z,26.23
2024-03-24T03:21:38.064Z,26.24
2024-03-24T03:22:38.126Z,26.23
2024-03-24T03:23:38.169Z,26.23
2024-03-24T03:24:38.235Z,26.21
2024-03-24T03:25:38.298Z,26.19
2024-03-24T03:26:38.370Z,26.13
2024-03-24T03:27:38.446Z,26.08
2024-03-24T03:28:38.501Z,26.03
2024-03-24T03:29:38.590Z,25.96
2024-03-24T03:30:38.633Z,25.92
2024-03-24T03:31:38.671Z,25.87
2024-03-24T03:32:38.704Z,25.84
2024-03-24T03:33:38.731Z,25.80
2024-03-24T03:34:38.732Z,25.76
2024-03-24T03:35:38.737Z,25.74
2024-03-24T03:36:38.745Z,25.72
2024-03-24T03:37:38.741Z,25.68
2024-03-24T03:38:38.760Z,25.65
2024-03-24T03:39:38.769Z,25.61
2024-03-24T03:40:38.810Z,25.58
2024-03-24T03:41:38.832Z,25.55
2024-03-24T03:42:38.865Z,25.54
2024-03-24T03:43:38.892Z,25.51
2024-03-24T03:44:38.929Z,25.48
2024-03-24T03:45:38.963Z,25.46
2024-03-24T03:46:38.998Z,25.45
2024-03-24T03:47:39.029Z,25.42
2024-03-24T03:48:39.044Z,25.40
2024-03-24T03:49:39.067Z,25.39
2024-03-24T03:50:39.104Z,25.37
2024-03-24T03:51:39.138Z,25.35
2024-03-24T03:52:39.166Z,25.33
2024-03-24T03:53:39.197Z,25.30
2024-03-24T03:54:39.239Z,25.30
2024-03-24T03:55:39.258Z,25.29
2024-03-24T03:56:39.312Z,25.27
2024-03-24T03:57:39.334Z,25.26
2024-03-24T03:58:39.370Z,25.25
2024-03-24T03:59:39.380Z,25.24
2024-03-24T04:00:39.376Z,25.22
2024-03-24T04:01:39.402Z,25.22
2024-03-24T04:02:39.392Z,25.21
2024-03-24T04:03:39.374Z,25.19
2024-03-24T04:04:39.376Z,25.17
2024-03-24T04:05:39.378Z,25.15
2024-03-24T04:06:39.378Z,25.15
2024-03-24T04:07:39.376Z,25.14
2024-03-24T04:08:39.392Z,25.13
2024-03-24T04:09:39.387Z,25.12
2024-03-24T04:10:39.379Z,25.12
2024-03-24T04:11:39.386Z,25.12
2024-03-24T04:12:39.372Z,25.10
2024-03-24T04:13:39.374Z,25.08
2024-03-24T04:14:39.378Z,25.08
2024-03-24T04:15:39.401Z,25.06
2024-03-24T04:16:39.449Z,25.05
2024-03-24T04:17:39.465Z,25.05
2024-03-24T04:18:39.519Z,25.04
2024-03-24T04:19:39.538Z,25.05
2024-03-24T04:20:46.731Z,25.03
2024-03-24T04:21:46.751Z,25.03
2024-03-24T04:22:46.722Z,25.03
2024-03-24T04:23:46.718Z,25.02
2024-03-24T04:24:46.715Z,25.01
2024-03-24T04:25:46.719Z,25.01
2024-03-24T04:26:46.733Z,25.00
2024-03-24T04:27:46.730Z,25.00
2024-03-24T04:28:46.726Z,25.00
2024-03-24T04:29:46.737Z,24.99
2024-03-24T04:30:46.725Z,24.99
2024-03-24T04:31:53.915Z,24.97
2024-03-24T04:32:53.915Z,24.97
2024-03-24T04:33:53.911Z,24.96
2024-03-24T04:34:53.907Z,24.96
2024-03-24T04:35:53.925Z,24.95
2024-03-24T04:36:53.913Z,24.96
2024-03-24T04:37:53.905Z,24.94
2024-03-24T04:38:53.920Z,24.95
2024-03-24T04:39:53.915Z,24.97
2024-03-24T04:40:53.933Z,24.96
2024-03-24T04:41:53.926Z,24.94
2024-03-24T04:42:53.913Z,24.94
2024-03-24T04:43:53.915Z,24.94
2024-03-24T04:44:53.920Z,24.94
2024-03-24T04:45:53.924Z,24.94
2024-03-24T04:46:53.917Z,24.94
2024-03-24T04:47:53.919Z,24.92
2024-03-24T04:48:53.926Z,24.91
2024-03-24T04:49:53.921Z,24.92
2024-03-24T04:50:53.923Z,24.91
2024-03-24T04:51:53.921Z,24.88
2024-03-24T04:52:53.914Z,24.88
2024-03-24T04:53:53.936Z,24.87
2024-03-24T04:54:53.911Z,24.87
2024-03-24T04:55:53.912Z,24.87
2024-03-24T04:56:53.926Z,24.88
2024-03-24T04:57:53.924Z,24.87
2024-03-24T04:58:53.919Z,24.87
2024-03-24T04:59:53.926Z,24.87
2024-03-24T05:00:53.921Z,24.86
2024-03-24T05:01:53.950Z,24.85
2024-03-24T05:02:53.944Z,24.83
2024-03-24T05:03:53.941Z,24.84
2024-03-24T05:04:53.943Z,24.83
2024-03-24T05:05:53.935Z,24.82
2024-03-24T05:06:53.941Z,24.83
2024-03-24T05:07:53.970Z,24.82
2024-03-24T05:08:54.007Z,24.82
2024-03-24T05:09:54.072Z,24.81
2024-03-24T05:10:54.146Z,24.82
2024-03-24T05:11:54.217Z,24.80
2024-03-24T05:12:54.282Z,24.80
2024-03-24T05:13:54.343Z,24.79
2024-03-24T05:14:54.392Z,24.78
2024-03-24T05:15:54.458Z,24.78
2024-03-24T05:16:54.486Z,24.77
2024-03-24T05:17:54.475Z,24.77
2024-03-24T05:18:54.460Z,24.77
2024-03-24T05:19:54.510Z,24.79
2024-03-24T05:20:54.480Z,24.78
2024-03-24T05:21:54.493Z,24.78
2024-03-24T05:22:54.471Z,24.79
2024-03-24T05:23:54.530Z,24.77
2024-03-24T05:24:54.581Z,24.78
2024-03-24T05:25:54.648Z,24.79
2024-03-24T05:26:54.701Z,24.78
2024-03-24T05:27:54.712Z,24.78
2024-03-24T05:28:56.037Z,24.78
2024-03-24T05:29:54.708Z,24.78
2024-03-24T05:30:54.712Z,24.78
2024-03-24T05:31:54.719Z,24.78
2024-03-24T05:32:54.722Z,24.77
2024-03-24T05:33:54.726Z,24.78
2024-03-24T05:34:54.730Z,24.80
2024-03-24T05:35:54.719Z,24.79
2024-03-24T05:36:54.730Z,24.80
2024-03-24T05:37:54.725Z,24.80
2024-03-24T05:38:54.715Z,24.78
2024-03-24T05:39:54.731Z,24.77
2024-03-24T05:40:54.735Z,24.76
2024-03-24T05:41:54.794Z,24.75
2024-03-24T05:42:54.857Z,24.76
2024-03-24T05:43:54.930Z,24.77
2024-03-24T05:44:55.013Z,24.77
2024-03-24T05:45:55.076Z,24.77
2024-03-24T05:46:55.138Z,24.76
2024-03-24T05:47:55.208Z,24.76
2024-03-24T05:48:55.283Z,24.76
2024-03-24T05:49:55.356Z,24.75
2024-03-24T05:50:55.430Z,24.75
2024-03-24T05:51:55.489Z,24.76
2024-03-24T05:52:55.571Z,24.76
2024-03-24T05:53:55.630Z,24.76
2024-03-24T05:54:55.687Z,24.76
2024-03-24T05:55:55.756Z,24.76
2024-03-24T05:56:55.850Z,24.76
2024-03-24T05:57:55.912Z,24.75
2024-03-24T05:58:55.979Z,24.76
2024-03-24T05:59:56.038Z,24.76
2024-03-24T06:00:56.132Z,24.76
2024-03-24T06:01:56.184Z,24.76
2024-03-24T06:02:56.255Z,24.75
2024-03-24T06:03:56.337Z,24.74
2024-03-24T06:04:56.386Z,24.74
2024-03-24T06:05:56.457Z,24.75
2024-03-24T06:06:56.512Z,24.74
2024-03-24T06:07:56.574Z,24.74
2024-03-24T06:08:56.622Z,24.75
2024-03-24T06:09:56.697Z,24.75
2024-03-24T06:10:56.759Z,24.76
2024-03-24T06:11:56.833Z,24.76
2024-03-24T06:12:56.909Z,24.78
2024-03-24T06:13:56.981Z,24.77
2024-03-24T06:14:57.047Z,24.77
2024-03-24T06:15:57.130Z,24.77
2024-03-24T06:16:57.201Z,24.77
2024-03-24T06:17:57.266Z,24.78
2024-03-24T06:18:57.304Z,24.78
2024-03-24T06:19:57.375Z,24.77
2024-03-24T06:20:57.426Z,24.77
2024-03-24T06:21:57.506Z,24.77
2024-03-24T06:22:57.565Z,24.77
2024-03-24T06:23:57.633Z,24.78
2024-03-24T06:24:57.715Z,24.79
2024-03-24T06:25:57.722Z,24.80
2024-03-24T06:26:57.723Z,24.78
2024-03-24T06:27:57.723Z,24.79
2024-03-24T06:28:57.705Z,24.79
2024-03-24T06:29:57.717Z,24.78
2024-03-24T06:30:57.730Z,24.78
2024-03-24T06:31:57.728Z,24.78
2024-03-24T06:32:57.717Z,24.78
2024-03-24T06:33:57.793Z,24.76
2024-03-24T06:34:57.854Z,24.77
2024-03-24T06:35:57.926Z,24.77
2024-03-24T06:36:58.003Z,24.77
2024-03-24T06:37:58.076Z,24.77
2024-03-24T06:38:58.133Z,24.77
2024-03-24T06:39:58.219Z,24.77
2024-03-24T06:40:58.279Z,24.76
2024-03-24T06:41:58.373Z,24.75
2024-03-24T06:42:58.416Z,24.77
2024-03-24T06:43:58.504Z,24.76
2024-03-24T06:44:58.565Z,24.76
2024-03-24T06:45:58.613Z,24.76
2024-03-24T06:46:58.690Z,24.78
2024-03-24T06:47:58.766Z,24.77
2024-03-24T06:48:58.835Z,24.76
2024-03-24T06:49:58.869Z,24.77
2024-03-24T06:50:58.923Z,24.78
2024-03-24T06:51:58.982Z,24.78
2024-03-24T06:52:59.045Z,24.79
2024-03-24T06:53:59.113Z,24.80
2024-03-24T06:54:59.167Z,24.79
2024-03-24T06:55:59.235Z,24.79
2024-03-24T06:56:59.298Z,24.77
2024-03-24T06:57:59.357Z,24.76
2024-03-24T06:58:59.439Z,24.77
2024-03-24T06:59:59.512Z,24.78
2024-03-24T07:00:59.587Z,24.80
2024-03-24T07:01:59.642Z,24.79
2024-03-24T07:02:59.686Z,24.79
2024-03-24T07:03:59.747Z,24.78
2024-03-24T07:04:59.802Z,24.78
2024-03-24T07:05:59.869Z,24.79
2024-03-24T07:06:59.915Z,24.78
2024-03-24T07:08:00.009Z,24.79
2024-03-24T07:09:00.076Z,24.79
2024-03-24T07:10:03.625Z,24.79
2024-03-24T07:11:00.147Z,24.78
2024-03-24T07:12:00.193Z,24.79
2024-03-24T07:13:00.133Z,24.79
2024-03-24T07:14:00.132Z,24.79
2024-03-24T07:15:00.258Z,24.79
2024-03-24T07:16:00.161Z,24.80
2024-03-24T07:17:00.158Z,24.81
2024-03-24T07:18:00.169Z,24.81
2024-03-24T07:19:00.166Z,24.81
2024-03-24T07:20:00.299Z,24.80
2024-03-24T07:21:00.262Z,24.80
2024-03-24T07:22:00.490Z,24.81
2024-03-24T07:23:00.439Z,24.82
2024-03-24T07:24:00.462Z,24.82
2024-03-24T07:25:00.493Z,24.81
2024-03-24T07:26:00.531Z,24.82
2024-03-24T07:27:00.568Z,24.82
2024-03-24T07:28:00.639Z,24.83
2024-03-24T07:29:00.707Z,24.83
2024-03-24T07:30:00.764Z,24.83
2024-03-24T07:31:00.824Z,24.84
2024-03-24T07:32:00.895Z,24.83
2024-03-24T07:33:00.973Z,24.83
2024-03-24T07:34:01.036Z,24.83
2024-03-24T07:35:01.095Z,24.82
2024-03-24T07:36:01.158Z,24.83
2024-03-24T07:37:01.253Z,24.83
2024-03-24T07:38:01.297Z,24.82
2024-03-24T07:39:01.399Z,24.81
2024-03-24T07:40:01.480Z,24.83
2024-03-24T07:41:01.514Z,24.84
2024-03-24T07:42:01.562Z,24.84
2024-03-24T07:43:01.628Z,24.83
2024-03-24T07:44:01.709Z,24.83
2024-03-24T07:45:01.770Z,24.84
2024-03-24T07:46:01.839Z,24.83
2024-03-24T07:47:01.908Z,24.84
2024-03-24T07:48:01.971Z,24.85
2024-03-24T07:49:02.029Z,24.86
2024-03-24T07:50:02.109Z,24.86
2024-03-24T07:51:02.175Z,24.87
2024-03-24T07:52:02.237Z,24.87
2024-03-24T07:53:02.297Z,24.88
2024-03-24T07:54:02.350Z,24.87
2024-03-24T07:55:02.399Z,24.87
2024-03-24T07:56:02.469Z,24.86
2024-03-24T07:57:02.596Z,24.84
2024-03-24T07:58:02.603Z,24.85
2024-03-24T07:59:02.666Z,24.84
2024-03-24T08:00:02.725Z,24.84
2024-03-24T08:01:02.777Z,24.83
2024-03-24T08:02:02.763Z,24.84
2024-03-24T08:03:02.772Z,24.86
2024-03-24T08:04:02.742Z,24.86
2024-03-24T08:05:02.740Z,24.87
2024-03-24T08:06:02.733Z,24.87
2024-03-24T08:07:02.747Z,24.90
2024-03-24T08:08:02.756Z,24.91
2024-03-24T08:09:02.761Z,24.92
2024-03-24T08:10:02.800Z,24.95
2024-03-24T08:11:02.752Z,24.97
2024-03-24T08:12:02.764Z,24.99
2024-03-24T08:13:02.746Z,25.02
2024-03-24T08:14:02.766Z,25.05
2024-03-24T08:15:02.809Z,25.07
2024-03-24T08:16:02.851Z,25.08
2024-03-24T08:17:02.909Z,25.08
2024-03-24T08:18:02.981Z,25.09
2024-03-24T08:19:03.015Z,25.07
2024-03-24T08:20:03.074Z,25.05
2024-03-24T08:21:03.126Z,25.02
2024-03-24T08:22:03.206Z,25.00
2024-03-24T08:23:03.276Z,24.97
2024-03-24T08:24:03.317Z,24.94
2024-03-24T08:25:03.385Z,24.91
2024-03-24T08:26:03.452Z,24.90
2024-03-24T08:27:03.534Z,24.83
2024-03-24T08:28:03.595Z,24.80
2024-03-24T08:29:03.656Z,24.79
2024-03-24T08:30:03.753Z,24.80
2024-03-24T08:31:03.799Z,24.81
2024-03-24T08:32:03.862Z,24.82
2024-03-24T08:33:03.930Z,24.85
2024-03-24T08:34:03.972Z,24.87
2024-03-24T08:35:04.032Z,24.91
2024-03-24T08:36:04.088Z,24.91
2024-03-24T08:37:04.152Z,24.91
2024-03-24T08:38:04.218Z,24.88
2024-03-24T08:39:04.254Z,24.86
2024-03-24T08:40:04.357Z,24.87
2024-03-24T08:41:04.375Z,24.84
2024-03-24T08:42:04.440Z,24.83
2024-03-24T08:43:04.513Z,24.81
2024-03-24T08:44:04.600Z,24.78
2024-03-24T08:45:04.661Z,24.77
2024-03-24T08:46:04.735Z,24.78
2024-03-24T08:47:04.802Z,24.77
2024-03-24T08:48:04.891Z,24.75
2024-03-24T08:49:04.933Z,24.77
2024-03-24T08:50:05.002Z,24.79
2024-03-24T08:51:05.055Z,24.81
2024-03-24T08:52:05.123Z,24.85
2024-03-24T08:53:05.176Z,24.89
2024-03-24T08:54:05.238Z,24.90
2024-03-24T08:55:05.290Z,24.91
2024-03-24T08:56:05.342Z,24.92
2024-03-24T08:57:05.400Z,24.92
2024-03-24T08:58:05.450Z,24.93
2024-03-24T08:59:05.507Z,24.93
2024-03-24T09:00:05.563Z,24.94
2024-03-24T09:01:05.618Z,24.95
2024-03-24T09:02:05.657Z,24.97
2024-03-24T09:03:05.666Z,24.97
2024-03-24T09:04:05.661Z,24.98
2024-03-24T09:05:05.677Z,24.99
2024-03-24T09:06:05.666Z,25.00
2024-03-24T09:07:05.695Z,25.00
2024-03-24T09:08:05.689Z,24.97
2024-03-24T09:09:05.676Z,24.96
2024-03-24T09:10:05.670Z,24.96
2024-03-24T09:11:05.684Z,24.94
2024-03-24T09:12:05.719Z,24.94
2024-03-24T09:13:05.769Z,24.93
2024-03-24T09:14:05.832Z,24.93
2024-03-24T09:15:05.918Z,24.93
2024-03-24T09:16:05.987Z,24.93
2024-03-24T09:17:06.052Z,24.92
2024-03-24T09:18:06.115Z,24.92
2024-03-24T09:19:06.184Z,24.90
2024-03-24T09:20:06.243Z,24.88
2024-03-24T09:21:06.318Z,24.86
2024-03-24T09:22:06.397Z,24.85
2024-03-24T09:23:06.449Z,24.83
2024-03-24T09:24:06.512Z,24.80
2024-03-24T09:25:06.573Z,24.79
2024-03-24T09:26:06.645Z,24.81
2024-03-24T09:27:06.704Z,24.86
2024-03-24T09:28:06.743Z,24.92
2024-03-24T09:29:06.791Z,24.97
2024-03-24T09:30:06.801Z,25.03
2024-03-24T09:31:06.838Z,25.10
2024-03-24T09:32:06.853Z,25.15
2024-03-24T09:33:06.877Z,25.20
2024-03-24T09:34:06.893Z,25.25
2024-03-24T09:35:13.163Z,25.30
2024-03-24T09:36:07.889Z,25.34
2024-03-24T09:37:06.893Z,25.39
2024-03-24T09:38:06.898Z,25.43
2024-03-24T09:39:06.922Z,25.46
2024-03-24T09:40:06.888Z,25.49
2024-03-24T09:41:06.883Z,25.53
2024-03-24T09:42:06.895Z,25.54
2024-03-24T09:43:06.889Z,25.57
2024-03-24T09:44:06.888Z,25.60
2024-03-24T09:45:06.897Z,25.61
2024-03-24T09:46:06.916Z,25.64
2024-03-24T09:47:06.890Z,25.65
2024-03-24T09:48:06.903Z,25.67
2024-03-24T09:49:06.963Z,25.69
2024-03-24T09:50:07.044Z,25.71
2024-03-24T09:51:07.113Z,25.72
2024-03-24T09:52:07.177Z,25.74
2024-03-24T09:53:07.232Z,25.75
2024-03-24T09:54:07.288Z,25.76
2024-03-24T09:55:07.355Z,25.78
2024-03-24T09:56:07.387Z,25.79
2024-03-24T09:57:07.433Z,25.80
2024-03-24T09:58:11.950Z,25.83
2024-03-24T09:59:08.533Z,25.83
2024-03-24T10:00:07.486Z,25.86
2024-03-24T10:01:07.512Z,25.86
2024-03-24T10:02:07.491Z,25.87
2024-03-24T10:03:07.487Z,25.88
2024-03-24T10:04:07.503Z,25.89
2024-03-24T10:05:07.504Z,25.90
2024-03-24T10:06:07.510Z,25.91
2024-03-24T10:07:07.506Z,25.92
2024-03-24T10:08:07.524Z,25.92
2024-03-24T10:09:07.518Z,25.93
2024-03-24T10:10:07.497Z,25.93
2024-03-24T10:11:07.498Z,25.94
2024-03-24T10:12:07.509Z,25.95
2024-03-24T10:13:07.523Z,25.96
2024-03-24T10:14:07.508Z,25.97
2024-03-24T10:15:07.515Z,25.97
2024-03-24T10:16:07.523Z,25.98
2024-03-24T10:17:07.522Z,25.98
2024-03-24T10:18:07.497Z,25.98
2024-03-24T10:19:07.509Z,25.98
2024-03-24T10:20:07.501Z,25.97
2024-03-24T10:21:07.505Z,25.97
2024-03-24T10:22:07.510Z,25.97
2024-03-24T10:23:07.571Z,25.97
2024-03-24T10:24:07.629Z,25.97
2024-03-24T10:25:07.692Z,25.97
2024-03-24T10:26:07.759Z,25.96
2024-03-24T10:27:07.854Z,25.97
2024-03-24T10:28:07.872Z,25.98
2024-03-24T10:29:07.946Z,25.97
2024-03-24T10:30:08.061Z,25.97
2024-03-24T10:31:08.103Z,25.97
2024-03-24T10:32:11.185Z,25.97
2024-03-24T10:33:09.124Z,25.97
2024-03-24T10:34:08.119Z,25.96
2024-03-24T10:35:08.123Z,25.97
2024-03-24T10:36:08.134Z,25.98
2024-03-24T10:37:08.132Z,25.98
2024-03-24T10:38:08.138Z,25.99
2024-03-24T10:39:08.155Z,25.99
2024-03-24T10:40:08.149Z,26.00
2024-03-24T10:41:08.170Z,26.01
2024-03-24T10:42:08.153Z,26.03
2024-03-24T10:43:08.183Z,26.04
2024-03-24T10:44:08.223Z,26.03
2024-03-24T10:45:08.237Z,26.04
2024-03-24T10:46:08.232Z,26.06
2024-03-24T10:47:08.244Z,26.07
2024-03-24T10:48:08.235Z,26.09
2024-03-24T10:49:08.240Z,26.12
2024-03-24T10:50:08.238Z,26.12
2024-03-24T10:51:08.237Z,26.14
2024-03-24T10:52:08.244Z,26.16
2024-03-24T10:53:08.232Z,26.18
2024-03-24T10:54:08.246Z,26.19
2024-03-24T10:55:08.236Z,26.21
2024-03-24T10:56:08.241Z,26.24
2024-03-24T10:57:08.252Z,26.25
2024-03-24T10:58:08.254Z,26.25
2024-03-24T10:59:10.479Z,26.26
2024-03-24T11:00:08.248Z,26.25
2024-03-24T11:01:08.248Z,26.26
2024-03-24T11:02:08.254Z,26.27
2024-03-24T11:03:08.259Z,26.28
2024-03-24T11:04:08.261Z,26.29
2024-03-24T11:05:08.368Z,26.30
2024-03-24T11:06:08.262Z,26.29
2024-03-24T11:07:08.289Z,26.30
2024-03-24T11:08:08.255Z,26.30
2024-03-24T11:09:08.278Z,26.29
2024-03-24T11:10:08.323Z,26.29
2024-03-24T11:11:08.258Z,26.29
2024-03-24T11:12:08.287Z,26.30
2024-03-24T11:13:08.269Z,26.30
2024-03-24T11:14:08.269Z,26.29
2024-03-24T11:15:08.262Z,26.28
2024-03-24T11:16:08.304Z,26.27
2024-03-24T11:17:08.367Z,26.27
2024-03-24T11:18:08.416Z,26.26
2024-03-24T11:19:08.456Z,26.25
2024-03-24T11:20:08.501Z,26.24
2024-03-24T11:21:08.531Z,26.24
2024-03-24T11:22:08.589Z,26.23
2024-03-24T11:23:08.627Z,26.23
2024-03-24T11:24:08.667Z,26.23
2024-03-24T11:25:08.715Z,26.22
2024-03-24T11:26:08.775Z,26.21
2024-03-24T11:27:08.811Z,26.21
2024-03-24T11:28:08.843Z,26.21
2024-03-24T11:29:08.894Z,26.21
2024-03-24T11:30:08.942Z,26.21
2024-03-24T11:31:08.982Z,26.22
2024-03-24T11:32:09.022Z,26.22
2024-03-24T11:33:09.088Z,26.23
2024-03-24T11:34:09.136Z,26.23
2024-03-24T11:35:09.193Z,26.23
2024-03-24T11:36:09.223Z,26.22
2024-03-24T11:37:09.275Z,26.22
2024-03-24T11:38:09.310Z,26.21
2024-03-24T11:39:09.358Z,26.21
2024-03-24T11:40:09.390Z,26.21
2024-03-24T11:41:09.437Z,26.20
2024-03-24T11:42:09.489Z,26.20
2024-03-24T11:43:09.553Z,26.20
2024-03-24T11:44:09.573Z,26.20
2024-03-24T11:45:09.627Z,26.19
2024-03-24T11:46:09.664Z,26.19
2024-03-24T11:47:09.716Z,26.19
2024-03-24T11:48:09.774Z,26.18
2024-03-24T11:49:09.798Z,26.19
2024-03-24T11:50:09.842Z,26.18
2024-03-24T11:51:09.871Z,26.19
2024-03-24T11:52:09.909Z,26.19
2024-03-24T11:53:09.959Z,26.20
2024-03-24T11:54:09.991Z,26.20
2024-03-24T11:55:10.048Z,26.20
2024-03-24T11:56:10.094Z,26.20
2024-03-24T11:57:10.162Z,26.21
2024-03-24T11:58:10.202Z,26.21
2024-03-24T11:59:10.256Z,26.21
2024-03-24T12:00:10.294Z,26.21
2024-03-24T12:01:10.346Z,26.21
2024-03-24T12:02:10.397Z,26.22
2024-03-24T12:03:10.481Z,26.22
2024-03-24T12:04:10.510Z,26.22
2024-03-24T12:05:10.560Z,26.22
2024-03-24T12:06:10.589Z,26.22
2024-03-24T12:07:10.647Z,26.23
2024-03-24T12:08:10.694Z,26.23
2024-03-24T12:09:10.760Z,26.23
2024-03-24T12:10:10.807Z,26.23
2024-03-24T12:11:10.853Z,26.23
2024-03-24T12:12:10.888Z,26.23
2024-03-24T12:13:10.928Z,26.23
2024-03-24T12:14:10.973Z,26.23
2024-03-24T12:15:10.999Z,26.24
2024-03-24T12:16:11.063Z,26.24
2024-03-24T12:17:11.634Z,26.24
2024-03-24T12:18:11.124Z,26.25
2024-03-24T12:19:11.173Z,26.24
2024-03-24T12:20:11.215Z,26.25
2024-03-24T12:21:11.247Z,26.25
2024-03-24T12:22:11.283Z,26.27
2024-03-24T12:23:14.053Z,26.27
2024-03-24T12:24:11.319Z,26.26
2024-03-24T12:25:11.324Z,26.26
2024-03-24T12:26:11.326Z,26.27
2024-03-24T12:27:11.343Z,26.26
2024-03-24T12:28:11.329Z,26.27
2024-03-24T12:29:11.338Z,26.26
2024-03-24T12:30:11.350Z,26.27
2024-03-24T12:31:11.345Z,26.28
2024-03-24T12:32:11.342Z,26.29
2024-03-24T12:33:11.338Z,26.29
2024-03-24T12:34:11.333Z,26.29
2024-03-24T12:35:11.335Z,26.30
2024-03-24T12:36:11.342Z,26.31
2024-03-24T12:37:11.328Z,26.32
2024-03-24T12:38:11.363Z,26.33
2024-03-24T12:39:11.410Z,26.34
2024-03-24T12:40:11.466Z,26.34
2024-03-24T12:41:11.509Z,26.34
2024-03-24T12:42:11.539Z,26.34
2024-03-24T12:43:11.605Z,26.35
2024-03-24T12:44:11.656Z,26.36
2024-03-24T12:45:11.678Z,26.36
2024-03-24T12:46:11.722Z,26.36
2024-03-24T12:47:11.767Z,26.37
2024-03-24T12:48:11.806Z,26.39
2024-03-24T12:49:11.835Z,26.40
2024-03-24T12:50:23.357Z,26.42
2024-03-24T12:51:12.862Z,26.42
2024-03-24T12:52:11.864Z,26.42
2024-03-24T12:53:11.875Z,26.42